Time;durP1;ratioP1;P1;durP2;ratioP2;P2;SDS_P1;SDS_P2;PMS_P1;PMS_P2;Temp;Humidity;BMP_temperature;BMP_pressure;BME280_temperature;BME280_humidity;BME280_pressure;Samples;Min_cycle;Max_cycle;Signal;HPM_P1;HPM_P2
2022/11/12 00:01:09;;;;;;;;;;;;;;;6.98;80.55;99902.34;7385440;19;19922;-77
2022/11/12 00:03:56;;;;;;;;;;;;;;;7.22;79.52;99902.59;7385057;19;19949;-77
2022/11/12 00:06:41;;;;;;;;;;;;;;;7.13;80.11;99894.44;7383462;19;19929;-77
2022/11/12 00:09:26;;;;;;;;;;;;;;;7.13;79.78;99897.06;7385398;19;19930;-77
2022/11/12 00:12:11;;;;;;;;;;;;;;;7.14;79.97;99896.97;7386486;19;20900;-77
2022/11/12 00:14:56;;;;;;;;;;;;;;;7.21;79.84;99894.78;7388657;19;19949;-77
2022/11/12 00:17:42;;;;;;;;;;;;;;;7.23;79.98;99890.28;7392362;19;20016;-77
2022/11/12 00:20:27;;;;;;;;;;;;;;;7.14;80.06;99889.09;7400058;19;19921;-77
2022/11/12 00:23:12;;;;;;;;;;;;;;;7.12;80.05;99890.13;7396362;19;20262;-77
2022/11/12 00:25:58;;;;;;;;;;;;;;;7.07;80.15;99897.47;7394456;19;19949;-77
2022/11/12 00:28:43;;;;;;;;;;;;;;;7.05;79.95;99894.91;7392735;19;19921;-77
2022/11/12 00:31:28;;;;;;;;;;;;;;;6.96;80.38;99901.59;7393288;19;20354;-78
2022/11/12 00:34:13;;;;;;;;;;;;;;;6.89;80.69;99897.66;7393801;19;19949;-78
2022/11/12 00:36:58;;;;;;;;;;;;;;;6.89;80.46;99892.38;7393924;19;20270;-76
2022/11/12 00:39:44;;;;;;;;;;;;;;;6.91;80.40;99887.88;7396924;19;19914;-77
2022/11/12 00:42:29;;;;;;;;;;;;;;;6.91;80.05;99889.69;7395401;19;20262;-78
2022/11/12 00:45:14;;;;;;;;;;;;;;;6.85;80.49;99887.44;7394796;19;19918;-77
2022/11/12 00:47:59;;;;;;;;;;;;;;;6.92;80.38;99886.94;7396392;19;19949;-77
2022/11/12 00:50:45;;;;;;;;;;;;;;;6.99;80.22;99890.03;7397759;19;20365;-78
2022/11/12 00:53:30;;;;;;;;;;;;;;;7.07;80.20;99884.31;7397180;19;19945;-77
2022/11/12 00:56:15;;;;;;;;;;;;;;;6.98;79.97;99891.00;7391179;19;19940;-77
2022/11/12 00:59:00;;;;;;;;;;;;;;;6.94;79.63;99889.47;7392789;19;19925;-77
2022/11/12 01:01:45;;;;;;;;;;;;;;;6.81;80.07;99886.75;7391931;19;19937;-78
2022/11/12 01:04:31;;;;;;;;;;;;;;;6.78;79.71;99890.44;7391320;19;19926;-77
2022/11/12 01:07:16;;;;;;;;;;;;;;;6.72;79.67;99885.56;7394501;19;19921;-78
2022/11/12 01:10:01;;;;;;;;;;;;;;;6.71;79.73;99896.16;7395887;19;19918;-78
2022/11/12 01:12:46;;;;;;;;;;;;;;;6.68;79.79;99899.81;7391930;19;19996;-78
2022/11/12 01:15:31;;;;;;;;;;;;;;;6.64;79.87;99889.59;7391107;19;19922;-77
2022/11/12 01:18:15;;;;;;;;;;;;;;;6.63;80.22;99893.16;7392881;19;20330;-77
2022/11/12 01:21:01;;;;;;;;;;;;;;;6.63;80.26;99885.25;7398574;19;19914;-77
2022/11/12 01:23:46;;;;;;;;;;;;;;;6.65;80.19;99889.50;7407110;19;19922;-77
2022/11/12 01:26:31;;;;;;;;;;;;;;;6.58;80.34;99888.16;7393769;19;19929;-77
2022/11/12 01:29:16;;;;;;;;;;;;;;;6.58;80.14;99881.16;7393993;19;19999;-77
2022/11/12 01:32:01;;;;;;;;;;;;;;;6.56;80.11;99885.66;7392011;19;19927;-78
2022/11/12 01:34:46;;;;;;;;;;;;;;;6.48;80.39;99879.16;7387126;19;19922;-77
2022/11/12 01:37:31;;;;;;;;;;;;;;;6.45;80.58;99874.94;7391149;19;19921;-77
2022/11/12 01:40:16;;;;;;;;;;;;;;;6.54;80.22;99873.53;7392613;19;19933;-77
2022/11/12 01:43:01;;;;;;;;;;;;;;;6.50;80.40;99870.25;7393541;19;19933;-77
2022/11/12 01:45:47;;;;;;;;;;;;;;;6.50;80.41;99872.00;7389492;19;20370;-78
2022/11/12 01:48:45;;;;;;;;;;;;;;;6.47;80.50;99865.16;7389144;19;19921;-77
2022/11/12 01:51:32;;;;;;;;;;;;;;;6.50;80.24;99865.00;7390892;19;20496;-76
2022/11/12 01:54:17;;;;;;;;;;;;;;;6.46;80.16;99868.72;7391308;19;19930;-77
2022/11/12 01:57:02;;;;;;;;;;;;;;;6.45;80.33;99861.78;7394607;19;19922;-77
2022/11/12 01:59:47;;;;;;;;;;;;;;;6.47;80.38;99861.69;7390685;19;20353;-77
2022/11/12 02:02:33;;;;;;;;;;;;;;;6.48;80.18;99853.72;7394207;19;20499;-77
2022/11/12 02:05:19;;;;;;;;;;;;;;;6.47;80.38;99857.25;7394463;19;19918;-76
2022/11/12 02:08:04;;;;;;;;;;;;;;;6.45;80.38;99856.53;7390488;19;19939;-76
2022/11/12 02:10:49;;;;;;;;;;;;;;;6.50;80.59;99849.22;7391311;19;19921;-77
2022/11/12 02:16:39;;;;;;;;;;;;;;;6.69;79.71;99843.66;7390326;19;19924;-77
2022/11/12 02:19:25;;;;;;;;;;;;;;;6.68;79.65;99841.13;7386041;19;20348;-76
2022/11/12 02:22:10;;;;;;;;;;;;;;;6.59;79.43;99853.91;7389844;19;20238;-77
2022/11/12 02:24:55;;;;;;;;;;;;;;;6.35;79.66;99845.72;7392604;19;19922;-77
2022/11/12 02:27:40;;;;;;;;;;;;;;;6.35;79.66;99839.63;7393358;19;19930;-78
2022/11/12 02:30:31;;;;;;;;;;;;;;;6.31;79.97;99846.84;7391933;19;20298;-77
2022/11/12 02:33:16;;;;;;;;;;;;;;;6.28;80.38;99839.13;7393457;19;19949;-78
2022/11/12 02:36:01;;;;;;;;;;;;;;;6.28;80.25;99838.31;7390798;19;20032;-77
2022/11/12 02:38:46;;;;;;;;;;;;;;;6.28;80.39;99833.03;7390384;19;19929;-77
2022/11/12 02:41:31;;;;;;;;;;;;;;;6.24;80.54;99832.41;7387773;19;19941;-77
2022/11/12 02:44:16;;;;;;;;;;;;;;;6.24;80.47;99831.53;7391391;19;20004;-77
2022/11/12 02:47:01;;;;;;;;;;;;;;;6.18;80.42;99837.16;7389967;19;19946;-77
2022/11/12 02:49:46;;;;;;;;;;;;;;;6.23;80.46;99838.56;7392074;19;19918;-76
2022/11/12 02:52:31;;;;;;;;;;;;;;;6.26;80.17;99835.75;7390498;19;19921;-77
2022/11/12 02:55:16;;;;;;;;;;;;;;;6.26;80.20;99835.75;7388683;19;19927;-78
2022/11/12 02:58:01;;;;;;;;;;;;;;;6.27;80.23;99837.47;7391124;19;19917;-76
2022/11/12 03:00:47;;;;;;;;;;;;;;;6.21;80.55;99836.97;7389360;19;19922;-76
2022/11/12 03:03:32;;;;;;;;;;;;;;;6.33;80.32;99838.88;7388949;19;20349;-77
2022/11/12 03:06:17;;;;;;;;;;;;;;;6.42;79.58;99838.28;7390091;19;19945;-77
2022/11/12 03:09:02;;;;;;;;;;;;;;;6.37;79.58;99841.22;7390041;19;20020;-77
2022/11/12 03:11:47;;;;;;;;;;;;;;;6.37;79.50;99837.72;7390646;19;20376;-78
2022/11/12 03:14:32;;;;;;;;;;;;;;;6.21;79.97;99842.22;7400871;19;19922;-77
2022/11/12 03:17:18;;;;;;;;;;;;;;;6.22;80.10;99843.94;7397139;19;19957;-77
2022/11/12 03:20:03;;;;;;;;;;;;;;;6.28;80.03;99838.31;7390074;19;19925;-77
2022/11/12 03:22:55;;;;;;;;;;;;;;;6.36;79.90;99836.88;7389688;19;19941;-77
2022/11/12 03:25:40;;;;;;;;;;;;;;;6.29;79.88;99839.97;7383053;19;19949;-77
2022/11/12 03:28:25;;;;;;;;;;;;;;;6.25;80.08;99838.50;7385664;19;19925;-77
2022/11/12 03:31:10;;;;;;;;;;;;;;;6.28;79.93;99833.03;7387034;19;20000;-77
2022/11/12 03:33:55;;;;;;;;;;;;;;;6.30;79.96;99828.53;7388067;19;19935;-77
2022/11/12 03:36:40;;;;;;;;;;;;;;;6.33;79.76;99833.63;7389404;19;19929;-77
2022/11/12 03:39:25;;;;;;;;;;;;;;;6.25;80.24;99830.59;7388140;19;19929;-77
2022/11/12 03:42:10;;;;;;;;;;;;;;;6.34;79.07;99827.41;7387837;19;20002;-77
2022/11/12 03:44:55;;;;;;;;;;;;;;;6.29;78.92;99832.09;7387060;19;19926;-77
2022/11/12 03:47:41;;;;;;;;;;;;;;;6.33;78.86;99833.63;7382190;19;19996;-77
2022/11/12 03:50:27;;;;;;;;;;;;;;;6.27;78.58;99841.88;7389757;19;20297;-77
2022/11/12 03:53:12;;;;;;;;;;;;;;;6.17;79.06;99832.84;7387008;19;19937;-77
2022/11/12 03:55:57;;;;;;;;;;;;;;;6.08;79.17;99845.59;7386955;19;19957;-77
2022/11/12 03:58:42;;;;;;;;;;;;;;;6.07;79.45;99850.94;7392890;19;19943;-77
2022/11/12 04:01:28;;;;;;;;;;;;;;;6.10;78.56;99846.34;7393783;19;19958;-77
2022/11/12 04:04:13;;;;;;;;;;;;;;;6.14;77.64;99853.13;7392267;19;19930;-77
2022/11/12 04:10:01;;;;;;;;;;;;;;;6.03;78.02;99842.41;7399993;19;19929;-77
2022/11/12 04:21:49;;;;;;;;;;;;;;;5.98;78.96;99849.72;7394582;19;20329;-77
2022/11/12 04:22:01;;;;;;;;;;;;;;;6.00;79.39;99849.59;7399886;19;20024;-78
2022/11/12 04:27:50;;;;;;;;;;;;;;;6.20;79.34;99843.19;7399711;19;19914;-77
2022/11/12 04:30:36;;;;;;;;;;;;;;;6.18;79.19;99842.41;7400131;19;20369;-78
2022/11/12 04:33:21;;;;;;;;;;;;;;;6.27;78.84;99837.47;7399017;19;19921;-77
2022/11/12 04:36:06;;;;;;;;;;;;;;;6.13;79.15;99838.28;7394914;19;19925;-78
2022/11/12 04:38:51;;;;;;;;;;;;;;;6.10;79.60;99829.72;7396483;19;19943;-77
2022/11/12 04:44:58;;;;;;;;;;;;;;;6.17;78.98;99822.34;7395018;19;19930;-77
2022/11/12 04:47:43;;;;;;;;;;;;;;;6.17;78.98;99825.81;7395874;19;20010;-77
2022/11/12 04:50:28;;;;;;;;;;;;;;;6.12;79.07;99831.34;7391524;19;19941;-77
2022/11/12 04:53:13;;;;;;;;;;;;;;;6.17;79.30;99838.09;7393870;19;19926;-77
2022/11/12 04:55:59;;;;;;;;;;;;;;;6.06;79.03;99839.59;7394193;19;19914;-77
2022/11/12 04:58:47;;;;;;;;;;;;;;;6.17;78.95;99840.75;7399127;19;19928;-77
2022/11/12 05:01:32;;;;;;;;;;;;;;;6.11;78.60;99844.56;7394615;19;19952;-77
2022/11/12 05:04:17;;;;;;;;;;;;;;;6.05;79.26;99848.38;7391768;19;20008;-77
2022/11/12 05:07:02;;;;;;;;;;;;;;;6.20;78.69;99845.81;7405649;19;19945;-77
2022/11/12 05:09:48;;;;;;;;;;;;;;;6.01;78.63;99851.31;7388876;19;19949;-77
2022/11/12 05:12:33;;;;;;;;;;;;;;;5.97;78.95;99850.63;7392567;19;19950;-77
2022/11/12 05:15:18;;;;;;;;;;;;;;;5.96;79.21;99850.72;7391230;19;19942;-77
2022/11/12 05:18:03;;;;;;;;;;;;;;;6.01;79.64;99849.53;7393335;19;20369;-77
2022/11/12 05:20:50;;;;;;;;;;;;;;;6.07;79.54;99846.53;7395745;19;19926;-78
2022/11/12 05:23:35;;;;;;;;;;;;;;;6.03;79.72;99847.66;7391364;19;19914;-78
2022/11/12 05:26:20;;;;;;;;;;;;;;;6.12;79.52;99847.09;7391575;19;19954;-77
2022/11/12 05:29:05;;;;;;;;;;;;;;;6.21;77.89;99842.22;7392589;19;19922;-78
2022/11/12 05:31:52;;;;;;;;;;;;;;;6.17;77.97;99840.75;7394461;19;20041;-77
2022/11/12 05:34:40;;;;;;;;;;;;;;;6.08;78.39;99842.97;7390827;19;19926;-77
2022/11/12 05:37:25;;;;;;;;;;;;;;;6.17;77.62;99841.56;7391237;19;20036;-77
2022/11/12 05:40:11;;;;;;;;;;;;;;;6.16;77.38;99834.59;7392641;19;19933;-77
2022/11/12 05:42:56;;;;;;;;;;;;;;;6.16;76.77;99829.34;7388831;19;20357;-77
2022/11/12 05:45:41;;;;;;;;;;;;;;;5.97;78.03;99836.66;7391237;19;19926;-78
2022/11/12 05:48:27;;;;;;;;;;;;;;;5.89;78.37;99842.31;7392805;19;19957;-77
2022/11/12 05:51:13;;;;;;;;;;;;;;;5.91;78.44;99838.66;7391458;19;19921;-77
2022/11/12 05:53:59;;;;;;;;;;;;;;;5.93;78.39;99841.22;7391808;19;19957;-77
2022/11/12 05:56:45;;;;;;;;;;;;;;;5.92;78.63;99850.88;7390973;19;20302;-78
2022/11/12 05:59:30;;;;;;;;;;;;;;;5.84;78.89;99860.13;7389379;19;19926;-77
2022/11/12 06:02:15;;;;;;;;;;;;;;;5.87;78.15;99854.69;7391837;19;20329;-77
2022/11/12 06:05:00;;;;;;;;;;;;;;;5.76;78.70;99855.31;7393460;19;21378;-78
2022/11/12 06:07:45;;;;;;;;;;;;;;;5.81;78.54;99865.56;7393315;19;19929;-77
2022/11/12 06:10:31;;;;;;;;;;;;;;;5.79;78.85;99857.75;7394692;19;20338;-77
2022/11/12 06:13:17;;;;;;;;;;;;;;;5.73;78.93;99863.38;7388968;19;19918;-77
2022/11/12 06:16:02;;;;;;;;;;;;;;;5.91;78.80;99874.59;7389935;19;19918;-78
2022/11/12 06:18:47;;;;;;;;;;;;;;;5.87;78.76;99866.06;7395581;19;19962;-77
2022/11/12 06:21:32;;;;;;;;;;;;;;;5.85;78.80;99867.94;7396219;19;19929;-78
2022/11/12 06:24:18;;;;;;;;;;;;;;;5.86;78.50;99868.78;7396448;19;19999;-77
2022/11/12 06:27:02;;;;;;;;;;;;;;;5.71;78.46;99874.00;7394022;19;19917;-77
2022/11/12 06:29:47;;;;;;;;;;;;;;;5.65;79.09;99871.69;7390769;19;20262;-77
2022/11/12 06:32:32;;;;;;;;;;;;;;;5.86;77.12;99874.88;7385797;19;20359;-77
2022/11/12 06:35:17;;;;;;;;;;;;;;;5.80;78.04;99877.00;7392836;19;19941;-78
2022/11/12 06:38:03;;;;;;;;;;;;;;;5.77;78.39;99872.78;7389508;19;21103;-77
2022/11/12 06:40:48;;;;;;;;;;;;;;;5.75;78.75;99874.66;7392733;19;19914;-77
2022/11/12 06:43:33;;;;;;;;;;;;;;;5.97;78.57;99876.06;7391671;19;20016;-77
2022/11/12 06:46:18;;;;;;;;;;;;;;;5.89;78.67;99869.44;7389582;19;19918;-77
2022/11/12 06:49:03;;;;;;;;;;;;;;;5.99;78.45;99872.41;7387742;19;19924;-78
2022/11/12 06:51:51;;;;;;;;;;;;;;;6.02;78.40;99869.59;7393144;19;19952;-78
2022/11/12 06:54:36;;;;;;;;;;;;;;;6.12;78.48;99865.50;7402266;19;19939;-78
2022/11/12 06:57:22;;;;;;;;;;;;;;;6.13;78.64;99867.19;7410727;19;19925;-77
2022/11/12 07:00:10;;;;;;;;;;;;;;;6.28;78.29;99867.22;7416584;19;19936;-78
2022/11/12 07:02:56;;;;;;;;;;;;;;;6.26;78.51;99866.44;7404406;19;19925;-78
2022/11/12 07:05:41;;;;;;;;;;;;;;;6.25;78.54;99865.63;7403129;19;19920;-78
2022/11/12 07:08:26;;;;;;;;;;;;;;;6.27;78.68;99866.38;7403280;19;19917;-78
2022/11/12 07:11:12;;;;;;;;;;;;;;;6.32;78.75;99861.69;7400892;19;19926;-79
2022/11/12 07:13:57;;;;;;;;;;;;;;;6.25;79.05;99870.03;7393750;19;19918;-79
2022/11/12 07:16:43;;;;;;;;;;;;;;;6.47;78.19;99862.53;7404620;19;19930;-78
2022/11/12 07:19:30;;;;;;;;;;;;;;;6.40;78.85;99857.72;7405257;19;19914;-78
2022/11/12 07:22:15;;;;;;;;;;;;;;;6.29;79.95;99861.88;7405013;19;19922;-78
2022/11/12 07:25:03;;;;;;;;;;;;;;;6.58;79.49;99873.25;7398150;19;19945;-80
2022/11/12 07:27:49;;;;;;;;;;;;;;;6.68;79.85;99872.69;7395833;19;19917;-79
2022/11/12 07:30:34;;;;;;;;;;;;;;;6.73;78.63;99870.59;7396650;19;20242;-78
2022/11/12 07:33:19;;;;;;;;;;;;;;;7.00;78.93;99865.41;7399290;19;19918;-80
2022/11/12 07:36:05;;;;;;;;;;;;;;;7.15;78.19;99867.06;7403556;19;19918;-78
2022/11/12 07:38:51;;;;;;;;;;;;;;;7.29;78.40;99866.19;7401956;19;20356;-80
2022/11/12 07:41:36;;;;;;;;;;;;;;;7.44;77.93;99857.31;7406040;19;19934;-77
2022/11/12 07:44:21;;;;;;;;;;;;;;;7.51;78.01;99859.56;7404619;19;20662;-79
2022/11/12 07:47:06;;;;;;;;;;;;;;;7.55;77.51;99853.97;7400466;19;19933;-79
2022/11/12 07:49:51;;;;;;;;;;;;;;;7.56;77.56;99855.69;7409116;19;19961;-78
2022/11/12 07:52:36;;;;;;;;;;;;;;;7.66;77.88;99858.53;7403220;19;19933;-77
2022/11/12 07:55:21;;;;;;;;;;;;;;;7.66;77.55;99861.16;7396493;19;19926;-78
2022/11/12 07:58:06;;;;;;;;;;;;;;;7.66;77.33;99858.53;7401539;19;19918;-79
2022/11/12 08:00:52;;;;;;;;;;;;;;;7.82;77.19;99861.00;7401631;19;19918;-79
2022/11/12 08:03:37;;;;;;;;;;;;;;;7.87;77.10;99861.53;7397405;19;19922;-78
2022/11/12 08:06:25;;;;;;;;;;;;;;;8.04;77.31;99861.28;7398789;19;19925;-79
2022/11/12 08:09:10;;;;;;;;;;;;;;;8.09;77.43;99855.69;7399536;19;19917;-78
2022/11/12 08:11:56;;;;;;;;;;;;;;;8.36;77.26;99858.25;7394599;19;20004;-78
2022/11/12 08:14:41;;;;;;;;;;;;;;;8.41;76.61;99864.06;7400413;19;19929;-78
2022/11/12 08:17:26;;;;;;;;;;;;;;;8.62;76.20;99863.56;7403305;19;19925;-78
2022/11/12 08:20:12;;;;;;;;;;;;;;;8.77;75.11;99860.69;7404791;19;19931;-79
2022/11/12 08:23:00;;;;;;;;;;;;;;;8.97;74.83;99858.41;7400350;19;19918;-78
2022/11/12 08:25:46;;;;;;;;;;;;;;;9.09;74.13;99862.00;7399236;19;19914;-78
2022/11/12 08:28:32;;;;;;;;;;;;;;;9.18;73.67;99856.03;7398582;19;19921;-79
2022/11/12 08:31:18;;;;;;;;;;;;;;;9.32;73.94;99855.91;7401304;19;19966;-79
2022/11/12 08:34:10;;;;;;;;;;;;;;;9.32;73.62;99860.31;7395172;19;19935;-77
2022/11/12 08:36:56;;;;;;;;;;;;;;;9.25;73.15;99853.81;7397708;19;19929;-78
2022/11/12 08:39:42;;;;;;;;;;;;;;;9.36;73.33;99853.88;7398073;19;20005;-78
2022/11/12 08:42:26;;;;;;;;;;;;;;;9.40;72.99;99855.31;7424441;19;19927;-77
2022/11/12 08:45:11;;;;;;;;;;;;;;;9.39;73.09;99851.84;7400370;19;20269;-77
2022/11/12 08:48:04;;;;;;;;;;;;;;;9.41;73.27;99854.38;7399713;19;19922;-78
2022/11/12 08:50:49;;;;;;;;;;;;;;;9.48;73.19;99844.19;7398147;19;19922;-78
2022/11/12 08:53:34;;;;;;;;;;;;;;;9.55;73.27;99846.28;7401142;19;19957;-77
2022/11/12 08:56:20;;;;;;;;;;;;;;;9.66;73.28;99848.13;7397544;19;19953;-78
2022/11/12 08:59:05;;;;;;;;;;;;;;;9.60;72.58;99852.06;7398312;19;19921;-77
2022/11/12 09:01:51;;;;;;;;;;;;;;;9.79;72.36;99848.91;7395374;19;19917;-78
2022/11/12 09:04:37;;;;;;;;;;;;;;;9.98;71.96;99850.16;7399819;19;19934;-77
2022/11/12 09:07:22;;;;;;;;;;;;;;;10.06;71.91;99851.28;7402780;19;19994;-78
2022/11/12 09:10:28;;;;;;;;;;;;;;;10.15;72.51;99859.47;7403983;19;19935;-78
2022/11/12 09:13:13;;;;;;;;;;;;;;;10.29;71.19;99857.50;7397645;19;19952;-78
2022/11/12 09:16:05;;;;;;;;;;;;;;;10.30;71.45;99848.59;7398525;19;19922;-78
2022/11/12 09:18:50;;;;;;;;;;;;;;;10.37;71.60;99858.69;7396333;19;19941;-78
2022/11/12 09:21:35;;;;;;;;;;;;;;;10.42;70.70;99851.25;7400504;19;19918;-78
2022/11/12 09:24:20;;;;;;;;;;;;;;;10.47;70.32;99844.63;7398964;19;19922;-78
2022/11/12 09:27:07;;;;;;;;;;;;;;;10.57;70.02;99839.47;7394994;19;19929;-77
2022/11/12 09:29:52;;;;;;;;;;;;;;;10.49;69.99;99832.13;7400361;19;20342;-78
2022/11/12 09:32:42;;;;;;;;;;;;;;;10.49;70.39;99837.44;7396914;19;20326;-77
2022/11/12 09:35:31;;;;;;;;;;;;;;;10.60;70.15;99833.09;7394187;19;20258;-78
2022/11/12 09:38:19;;;;;;;;;;;;;;;10.75;69.86;99831.91;7399251;19;19948;-78
2022/11/12 09:41:20;;;;;;;;;;;;;;;10.63;69.80;99832.88;7397794;19;20346;-78
2022/11/12 09:44:10;;;;;;;;;;;;;;;10.68;70.25;99830.69;7392403;19;19926;-77
2022/11/12 09:46:59;;;;;;;;;;;;;;;10.84;69.50;99825.88;7393557;19;19913;-78
2022/11/12 09:49:49;;;;;;;;;;;;;;;10.94;69.67;99826.00;7391874;19;19922;-78
2022/11/12 09:52:35;;;;;;;;;;;;;;;10.90;70.65;99822.75;7392164;19;19997;-78
2022/11/12 09:55:41;;;;;;;;;;;;;;;11.01;71.19;99827.19;7392415;19;19918;-78
2022/11/12 09:58:32;;;;;;;;;;;;;;;11.11;70.05;99828.13;7387745;19;19931;-76
2022/11/12 10:01:26;;;;;;;;;;;;;;;11.23;70.10;99822.81;7391081;19;20342;-77
2022/11/12 10:04:43;;;;;;;;;;;;;;;11.46;68.50;99816.47;7392160;19;19925;-77
2022/11/12 10:07:39;;;;;;;;;;;;;;;11.27;67.92;99822.44;7396991;19;20377;-79
2022/11/12 10:10:27;;;;;;;;;;;;;;;11.39;69.25;99821.41;7394459;19;20004;-77
2022/11/12 10:13:16;;;;;;;;;;;;;;;11.51;68.48;99826.72;7393915;19;19922;-79
2022/11/12 10:19:27;;;;;;;;;;;;;;;11.36;69.03;99834.09;7396637;19;19910;-77
2022/11/12 10:22:21;;;;;;;;;;;;;;;11.57;68.57;99827.03;7393907;19;20681;-77
2022/11/12 10:25:17;;;;;;;;;;;;;;;11.63;67.90;99820.38;7390427;19;19929;-77
2022/11/12 10:28:18;;;;;;;;;;;;;;;11.62;66.88;99810.75;7388908;19;19921;-77
2022/11/12 10:31:06;;;;;;;;;;;;;;;12.01;66.79;99817.22;7394608;19;19929;-78
2022/11/12 10:33:59;;;;;;;;;;;;;;;12.06;64.94;99811.53;7394808;19;19918;-77
2022/11/12 10:36:48;;;;;;;;;;;;;;;12.18;65.48;99806.97;7392797;19;19921;-78
2022/11/12 10:39:33;;;;;;;;;;;;;;;12.26;66.51;99813.31;7392691;19;20280;-78
2022/11/12 10:42:20;;;;;;;;;;;;;;;12.35;65.09;99805.53;7386592;19;19921;-78
2022/11/12 10:45:17;;;;;;;;;;;;;;;12.50;64.69;99813.00;7390080;19;19922;-78
2022/11/12 10:48:02;;;;;;;;;;;;;;;12.54;64.62;99804.78;7395671;19;19964;-78
2022/11/12 10:50:47;;;;;;;;;;;;;;;12.70;64.41;99798.00;7391001;19;19918;-78
2022/11/12 10:53:34;;;;;;;;;;;;;;;12.79;64.52;99798.16;7406406;19;19960;-77
2022/11/12 10:56:29;;;;;;;;;;;;;;;12.49;63.28;99800.72;7397706;19;19935;-78
2022/11/12 10:59:14;;;;;;;;;;;;;;;12.77;64.91;99797.44;7395604;19;19918;-80
2022/11/12 11:01:59;;;;;;;;;;;;;;;12.74;64.52;99791.47;7408808;19;19946;-78
2022/11/12 11:04:45;;;;;;;;;;;;;;;12.87;63.71;99791.19;7404444;19;19930;-76
2022/11/12 11:07:30;;;;;;;;;;;;;;;13.02;63.47;99789.00;7402903;19;21425;-77
2022/11/12 11:10:42;;;;;;;;;;;;;;;13.03;62.92;99787.19;7402657;19;19933;-77
2022/11/12 11:13:27;;;;;;;;;;;;;;;12.97;65.29;99785.91;7398980;19;19922;-76
2022/11/12 11:16:14;;;;;;;;;;;;;;;13.07;65.39;99777.97;7398020;19;19955;-77
2022/11/12 11:19:03;;;;;;;;;;;;;;;13.28;64.44;99781.38;7398724;19;20350;-78
2022/11/12 11:21:48;;;;;;;;;;;;;;;12.86;63.27;99770.09;7392244;19;19917;-77
2022/11/12 11:24:35;;;;;;;;;;;;;;;12.79;62.14;99771.59;7384191;19;19993;-78
2022/11/12 11:27:38;;;;;;;;;;;;;;;12.72;64.41;99771.31;7386029;19;19921;-78
2022/11/12 11:30:27;;;;;;;;;;;;;;;12.73;65.35;99771.16;7387112;19;19949;-78
2022/11/12 11:33:27;;;;;;;;;;;;;;;12.75;64.55;99763.09;7384154;19;19938;-77
2022/11/12 11:36:16;;;;;;;;;;;;;;;12.63;63.74;99772.13;7393414;19;20349;-78
2022/11/12 11:39:13;;;;;;;;;;;;;;;12.87;65.47;99766.44;7388614;19;19922;-77
2022/11/12 11:42:02;;;;;;;;;;;;;;;12.94;64.76;99763.13;7390819;19;19930;-78
2022/11/12 11:44:54;;;;;;;;;;;;;;;13.17;63.50;99760.22;7386195;19;19922;-77
2022/11/12 11:48:01;;;;;;;;;;;;;;;12.88;65.61;99755.72;7380674;19;20519;-78
2022/11/12 11:50:58;;;;;;;;;;;;;;;12.81;65.38;99761.69;7382595;19;19940;-77
2022/11/12 11:53:42;;;;;;;;;;;;;;;12.64;64.20;99750.75;7386200;19;19930;-77
2022/11/12 11:56:30;;;;;;;;;;;;;;;12.66;65.25;99747.94;7389292;19;19917;-77
2022/11/12 11:59:19;;;;;;;;;;;;;;;12.77;64.40;99753.16;7390405;19;20028;-78
2022/11/12 12:02:04;;;;;;;;;;;;;;;12.77;65.06;99742.56;7385299;19;19959;-77
2022/11/12 12:05:08;;;;;;;;;;;;;;;12.79;64.11;99737.09;7383451;19;20357;-77
2022/11/12 12:07:56;;;;;;;;;;;;;;;12.87;63.53;99738.06;7385763;19;19924;-79
2022/11/12 12:10:59;;;;;;;;;;;;;;;13.01;64.52;99736.03;7383442;19;19922;-79
2022/11/12 12:13:56;;;;;;;;;;;;;;;13.03;63.66;99729.56;7385401;19;19941;-78
2022/11/12 12:16:45;;;;;;;;;;;;;;;12.95;64.56;99732.06;7394187;19;20595;-78
2022/11/12 12:19:50;;;;;;;;;;;;;;;12.82;63.64;99731.50;7390371;19;19918;-76
2022/11/12 12:22:37;;;;;;;;;;;;;;;13.01;64.30;99730.72;7400049;19;20012;-76
2022/11/12 12:25:24;;;;;;;;;;;;;;;13.05;63.77;99726.78;7389989;19;21199;-77
2022/11/12 12:28:18;;;;;;;;;;;;;;;13.11;64.23;99727.09;7390732;19;20333;-78
2022/11/12 12:31:06;;;;;;;;;;;;;;;12.89;65.11;99727.31;7395875;19;19974;-79
2022/11/12 12:34:04;;;;;;;;;;;;;;;12.84;64.46;99714.44;7393983;19;20500;-78
2022/11/12 12:36:51;;;;;;;;;;;;;;;12.85;64.47;99717.94;7391646;19;19958;-78
2022/11/12 12:39:38;;;;;;;;;;;;;;;12.68;64.96;99724.75;7385760;19;20004;-77
2022/11/12 12:42:41;;;;;;;;;;;;;;;13.02;64.44;99719.09;7392493;19;19944;-77
2022/11/12 12:45:36;;;;;;;;;;;;;;;13.11;63.77;99712.94;7390393;19;19929;-78
2022/11/12 12:48:24;;;;;;;;;;;;;;;13.13;65.40;99709.16;7388659;19;20346;-77
2022/11/12 12:51:10;;;;;;;;;;;;;;;13.05;65.44;99709.03;7391554;19;19929;-77
2022/11/12 12:53:55;;;;;;;;;;;;;;;13.03;64.39;99704.81;7390373;19;19925;-77
2022/11/12 12:56:41;;;;;;;;;;;;;;;13.13;66.26;99695.03;7391228;19;19949;-77
2022/11/12 12:59:26;;;;;;;;;;;;;;;13.15;64.91;99695.75;7393370;19;19998;-77
2022/11/12 13:02:18;;;;;;;;;;;;;;;13.05;64.99;99695.75;7394426;19;19929;-77
2022/11/12 13:05:03;;;;;;;;;;;;;;;13.14;64.75;99696.75;7385768;19;20004;-77
2022/11/12 13:07:49;;;;;;;;;;;;;;;13.20;64.17;99692.69;7392198;19;20012;-78
2022/11/12 13:10:43;;;;;;;;;;;;;;;13.36;64.40;99685.84;7395055;19;20624;-79
2022/11/12 13:13:30;;;;;;;;;;;;;;;13.39;64.71;99684.72;7391992;19;19945;-77
2022/11/12 13:16:35;;;;;;;;;;;;;;;13.38;64.52;99683.88;7387009;19;19940;-78
2022/11/12 13:19:27;;;;;;;;;;;;;;;13.53;65.36;99689.59;7391733;19;19933;-78
2022/11/12 13:22:18;;;;;;;;;;;;;;;13.49;64.64;99674.91;7393074;19;19922;-78
2022/11/12 13:25:06;;;;;;;;;;;;;;;13.50;65.21;99678.41;7386840;19;20044;-77
2022/11/12 13:27:51;;;;;;;;;;;;;;;13.41;64.95;99668.63;7389732;19;20655;-77
2022/11/12 13:30:40;;;;;;;;;;;;;;;13.57;66.44;99669.72;7382643;19;19933;-78
2022/11/12 13:33:27;;;;;;;;;;;;;;;13.06;65.84;99676.19;7382075;19;19938;-77
2022/11/12 13:36:31;;;;;;;;;;;;;;;13.44;66.74;99669.19;7385114;19;20096;-77
2022/11/12 13:39:17;;;;;;;;;;;;;;;13.53;64.77;99668.34;7391000;19;19925;-78
2022/11/12 13:45:12;;;;;;;;;;;;;;;13.73;65.44;99677.09;7390578;19;20342;-78
2022/11/12 13:47:57;;;;;;;;;;;;;;;13.61;65.86;99676.44;7385826;19;19918;-76
2022/11/12 13:50:42;;;;;;;;;;;;;;;13.78;66.46;99666.03;7389900;19;20341;-78
2022/11/12 13:53:27;;;;;;;;;;;;;;;13.61;65.80;99663.16;7391887;19;19963;-75
2022/11/12 13:56:25;;;;;;;;;;;;;;;13.63;66.41;99670.13;7380691;19;20457;-77
2022/11/12 13:59:13;;;;;;;;;;;;;;;13.41;66.69;99658.84;7389680;19;19941;-76
2022/11/12 14:02:01;;;;;;;;;;;;;;;13.66;67.08;99664.50;7390173;19;19921;-76
2022/11/12 14:04:46;;;;;;;;;;;;;;;13.56;67.68;99657.41;7381709;19;19954;-78
2022/11/12 14:07:53;;;;;;;;;;;;;;;13.64;66.83;99655.84;7390896;19;19925;-75
2022/11/12 14:10:44;;;;;;;;;;;;;;;13.55;66.58;99657.53;7389462;19;20270;-75
2022/11/12 14:13:44;;;;;;;;;;;;;;;13.53;66.33;99652.38;7383098;19;19931;-76
2022/11/12 14:16:32;;;;;;;;;;;;;;;13.42;66.81;99660.50;7383693;19;19932;-77
2022/11/12 14:19:33;;;;;;;;;;;;;;;13.46;67.41;99661.91;7389126;19;19929;-75
2022/11/12 14:22:19;;;;;;;;;;;;;;;13.30;66.97;99659.00;7387368;19;20254;-77
2022/11/12 14:25:09;;;;;;;;;;;;;;;13.40;66.96;99657.13;7387417;19;19957;-75
2022/11/12 14:27:57;;;;;;;;;;;;;;;13.39;67.39;99656.31;7388761;19;20419;-75
2022/11/12 14:30:43;;;;;;;;;;;;;;;13.37;67.29;99646.78;7387929;19;20006;-75
2022/11/12 14:33:29;;;;;;;;;;;;;;;13.20;68.35;99645.69;7391755;19;19982;-77
2022/11/12 14:36:15;;;;;;;;;;;;;;;13.04;68.59;99638.28;7388071;19;19926;-77
2022/11/12 14:39:00;;;;;;;;;;;;;;;12.93;69.80;99633.94;7382961;19;19926;-77
2022/11/12 14:41:46;;;;;;;;;;;;;;;12.98;69.15;99640.63;7389174;19;19995;-76
2022/11/12 14:44:32;;;;;;;;;;;;;;;12.99;69.18;99635.19;7386182;19;19931;-76
2022/11/12 14:47:17;;;;;;;;;;;;;;;12.97;69.50;99629.19;7387168;19;20726;-76
2022/11/12 14:50:03;;;;;;;;;;;;;;;12.96;69.46;99632.84;7389887;19;19922;-77
2022/11/12 14:52:48;;;;;;;;;;;;;;;12.79;70.10;99625.53;7388493;19;19918;-76
2022/11/12 14:55:34;;;;;;;;;;;;;;;12.61;70.67;99631.56;7382801;19;20338;-76
2022/11/12 14:58:20;;;;;;;;;;;;;;;12.38;71.57;99630.13;7387297;19;19930;-76
2022/11/12 15:01:18;;;;;;;;;;;;;;;12.28;71.98;99627.44;7387316;19;19956;-76
2022/11/12 15:04:25;;;;;;;;;;;;;;;12.22;72.17;99635.94;7386370;19;19930;-76